Time;durP1;ratioP1;P1;durP2;ratioP2;P2;SDS_P1;SDS_P2;PMS_P1;PMS_P2;Temp;Humidity;BMP_temperature;BMP_pressure;BME280_temperature;BME280_humidity;BME280_pressure;Samples;Min_cycle;Max_cycle;Signal;HPM_P1;HPM_P2
2023/08/10 00:02:02;;;;;;;3.70;2.37;;;10.40;1.00;;;;;;8328853;28;20210;-64
2023/08/10 00:06:02;;;;;;;3.33;2.57;;;10.40;11.80;;;;;;8327121;28;20198;-65
2023/08/10 00:10:04;;;;;;;2.17;1.97;;;10.40;99.90;;;;;;8330370;28;20213;-65
2023/08/10 00:14:05;;;;;;;2.53;2.10;;;10.30;99.90;;;;;;8333322;28;20522;-64
2023/08/10 00:18:07;;;;;;;2.50;2.10;;;10.20;99.90;;;;;;8328666;28;20194;-63
2023/08/10 00:22:07;;;;;;;3.30;2.37;;;10.10;1.00;;;;;;8328681;28;20248;-63
2023/08/10 00:26:08;;;;;;;3.13;2.53;;;10.00;93.40;;;;;;8334580;28;20187;-63
2023/08/10 00:30:09;;;;;;;2.30;2.00;;;9.90;99.90;;;;;;8330229;28;20194;-64
2023/08/10 00:34:10;;;;;;;3.03;2.10;;;9.90;99.90;;;;;;8330764;28;20513;-63
2023/08/10 00:38:11;;;;;;;5.50;3.00;;;9.90;99.90;;;;;;8326320;28;20285;-64
2023/08/10 00:42:12;;;;;;;4.67;2.87;;;9.90;99.90;;;;;;8328818;28;20221;-63
2023/08/10 00:46:13;;;;;;;3.53;2.60;;;9.90;99.90;;;;;;8328618;28;20203;-62
2023/08/10 00:50:14;;;;;;;3.43;2.67;;;9.90;99.90;;;;;;8331478;28;20514;-65
2023/08/10 00:54:15;;;;;;;3.70;2.67;;;9.80;99.90;;;;;;8324053;28;20197;-63
2023/08/10 00:58:16;;;;;;;2.77;2.40;;;9.80;99.90;;;;;;8332921;28;20214;-63
2023/08/10 01:02:17;;;;;;;5.73;2.80;;;9.70;99.90;;;;;;8330469;28;20213;-61
2023/08/10 01:06:30;;;;;;;2.57;2.37;;;9.70;99.90;;;;;;8331941;28;20186;-63
2023/08/10 01:10:40;;;;;;;3.40;2.50;;;9.70;99.90;;;;;;8329235;28;20214;-65
2023/08/10 01:14:51;;;;;;;3.50;2.60;;;9.80;99.90;;;;;;8326372;28;22034;-65
2023/08/10 01:18:52;;;;;;;4.33;2.80;;;10.00;99.90;;;;;;8324614;28;20269;-66
2023/08/10 01:23:20;;;;;;;2.40;2.10;;;10.30;99.90;;;;;;8333055;28;20225;-66
2023/08/10 01:27:22;;;;;;;3.10;2.80;;;10.40;99.90;;;;;;8324732;28;20188;-66
2023/08/10 01:31:22;;;;;;;4.40;2.77;;;10.50;99.90;;;;;;8331418;28;20297;-66
2023/08/10 01:35:24;;;;;;;4.20;2.53;;;10.70;99.90;;;;;;8324446;28;20195;-66
2023/08/10 01:39:25;;;;;;;3.50;2.30;;;10.90;99.90;;;;;;8326657;28;20200;-66
2023/08/10 01:43:26;;;;;;;4.07;2.10;;;11.00;99.90;;;;;;8323989;28;20299;-66
2023/08/10 01:47:49;;;;;;;3.13;1.80;;;11.00;99.90;;;;;;8328964;28;20206;-66
2023/08/10 01:51:52;;;;;;;3.53;2.17;;;11.00;99.90;;;;;;8328995;28;20178;-66
2023/08/10 01:55:57;;;;;;;2.03;1.80;;;11.00;99.90;;;;;;8321572;28;20181;-66
2023/08/10 01:59:57;;;;;;;2.03;1.83;;;10.90;99.90;;;;;;8326095;28;20203;-66
2023/08/10 02:04:00;;;;;;;6.37;2.00;;;10.80;99.90;;;;;;8326448;28;20192;-66
2023/08/10 02:08:01;;;;;;;4.23;2.03;;;10.80;99.90;;;;;;8325490;28;20289;-66
2023/08/10 02:12:02;;;;;;;3.10;2.10;;;10.70;99.90;;;;;;8325607;28;20217;-66
2023/08/10 02:16:03;;;;;;;4.33;2.30;;;10.70;99.90;;;;;;8319812;28;20184;-66
2023/08/10 02:20:14;;;;;;;2.90;2.40;;;10.70;99.90;;;;;;8319870;28;20345;-63
2023/08/10 02:24:15;;;;;;;4.90;2.57;;;10.70;99.90;;;;;;8319010;28;20209;-65
2023/08/10 02:28:16;;;;;;;4.60;3.57;;;10.70;99.90;;;;;;8320755;28;20273;-65
2023/08/10 02:32:17;;;;;;;8.00;5.23;;;10.70;99.90;;;;;;8320968;28;20189;-63
2023/08/10 02:36:17;;;;;;;7.67;5.10;;;10.70;99.90;;;;;;8322813;28;20182;-66
2023/08/10 02:40:18;;;;;;;8.03;4.63;;;10.70;99.90;;;;;;8327125;28;20202;-65
2023/08/10 02:44:20;;;;;;;6.07;4.20;;;10.70;99.90;;;;;;8324317;28;20221;-65
2023/08/10 02:48:21;;;;;;;5.97;3.63;;;10.60;99.90;;;;;;8326923;28;20250;-64
2023/08/10 02:52:22;;;;;;;4.63;2.57;;;10.50;99.90;;;;;;8321190;28;20259;-63
2023/08/10 02:56:23;;;;;;;4.57;3.23;;;10.50;99.90;;;;;;8321493;28;20182;-64
2023/08/10 03:00:23;;;;;;;3.63;2.70;;;10.40;99.90;;;;;;8323420;28;20356;-65
2023/08/10 03:04:24;;;;;;;6.97;3.63;;;10.30;99.90;;;;;;8334377;28;20281;-64
2023/08/10 03:08:25;;;;;;;3.93;3.00;;;10.30;99.90;;;;;;8313012;28;20193;-63
2023/08/10 03:12:26;;;;;;;3.77;2.57;;;10.20;99.90;;;;;;8327927;28;20189;-63
2023/08/10 03:16:27;;;;;;;2.57;2.20;;;10.10;99.90;;;;;;8322221;28;20190;-66
2023/08/10 03:20:28;;;;;;;3.70;2.10;;;10.00;99.90;;;;;;8321397;28;20209;-63
2023/08/10 03:24:28;;;;;;;2.97;1.97;;;9.90;99.90;;;;;;8325020;28;20189;-65
2023/08/10 03:28:29;;;;;;;4.53;2.23;;;9.70;99.90;;;;;;8327707;28;21326;-64
2023/08/10 03:32:30;;;;;;;2.53;2.10;;;9.60;99.90;;;;;;8328542;28;20194;-65
2023/08/10 03:36:31;;;;;;;2.40;1.90;;;9.40;99.90;;;;;;8322423;28;20187;-64
2023/08/10 03:40:32;;;;;;;2.50;1.83;;;9.40;99.90;;;;;;8322370;28;20218;-64
2023/08/10 03:44:33;;;;;;;3.10;1.83;;;9.30;99.90;;;;;;8319650;28;20197;-64
2023/08/10 03:48:34;;;;;;;4.83;1.90;;;9.30;99.90;;;;;;8323438;28;20187;-64
2023/08/10 03:52:34;;;;;;;2.50;1.97;;;9.40;99.90;;;;;;8328469;28;20300;-66
2023/08/10 03:56:38;;;;;;;2.70;2.27;;;9.50;99.90;;;;;;8319198;28;20186;-64
2023/08/10 04:00:44;;;;;;;2.37;1.90;;;9.60;99.90;;;;;;8330206;28;20279;-65
2023/08/10 04:04:45;;;;;;;2.90;2.10;;;9.70;99.90;;;;;;8331375;28;20187;-63
2023/08/10 04:08:46;;;;;;;4.10;2.50;;;9.80;99.90;;;;;;8332250;28;20648;-65
2023/08/10 04:12:46;;;;;;;2.57;2.20;;;9.90;99.90;;;;;;8328759;28;20275;-65
2023/08/10 04:16:47;;;;;;;2.30;1.93;;;10.00;99.90;;;;;;8330392;28;20202;-65
2023/08/10 04:20:49;;;;;;;2.60;1.70;;;10.20;99.90;;;;;;8325910;28;20209;-64
2023/08/10 04:24:50;;;;;;;3.03;1.77;;;10.40;99.90;;;;;;8334609;28;20206;-64
2023/08/10 04:28:51;;;;;;;3.07;2.20;;;11.00;99.90;;;;;;8330066;28;20524;-64
2023/08/10 04:32:52;;;;;;;1.70;1.60;;;11.20;99.90;;;;;;8325613;28;20182;-65
2023/08/10 04:36:53;;;;;;;2.47;2.20;;;11.30;99.90;;;;;;8330552;28;20185;-66
2023/08/10 04:40:53;;;;;;;2.53;1.60;;;11.40;99.90;;;;;;8323850;28;20207;-63
2023/08/10 04:44:54;;;;;;;4.13;2.10;;;11.50;99.90;;;;;;8321030;28;20220;-65
2023/08/10 04:48:55;;;;;;;1.90;1.70;;;11.60;99.90;;;;;;8324501;28;20196;-65
2023/08/10 04:52:56;;;;;;;1.77;1.67;;;11.80;99.90;;;;;;8324600;28;20274;-64
2023/08/10 04:56:57;;;;;;;4.00;2.10;;;11.90;99.90;;;;;;8323116;28;20592;-64
2023/08/10 05:00:58;;;;;;;4.23;2.20;;;12.00;99.90;;;;;;8330181;28;20240;-64
2023/08/10 05:04:59;;;;;;;3.97;1.90;;;12.00;99.90;;;;;;8322060;28;20186;-65
2023/08/10 05:09:01;;;;;;;3.70;2.00;;;12.10;99.90;;;;;;8321154;28;20210;-64
2023/08/10 05:13:02;;;;;;;4.37;2.10;;;12.20;99.90;;;;;;8318095;28;20185;-64
2023/08/10 05:17:04;;;;;;;4.00;1.90;;;12.30;99.90;;;;;;8320190;28;20181;-64
2023/08/10 05:21:05;;;;;;;2.17;1.87;;;12.50;99.90;;;;;;8326752;28;20208;-66
2023/08/10 05:25:08;;;;;;;3.50;1.90;;;12.60;99.90;;;;;;8324017;28;20212;-65
2023/08/10 05:29:09;;;;;;;1.93;1.67;;;12.80;99.90;;;;;;8327868;28;20213;-63
2023/08/10 05:33:10;;;;;;;6.97;2.03;;;13.10;99.90;;;;;;8323214;28;20185;-63
2023/08/10 05:37:10;;;;;;;2.53;1.77;;;13.30;99.90;;;;;;8327510;28;20196;-64
2023/08/10 05:41:11;;;;;;;2.50;1.40;;;13.60;99.90;;;;;;8325040;28;20221;-63
2023/08/10 05:45:15;;;;;;;2.87;1.10;;;13.90;99.90;;;;;;8317384;28;20478;-64
2023/08/10 05:49:16;;;;;;;1.93;1.40;;;14.20;99.90;;;;;;8327558;28;20243;-65
2023/08/10 05:53:16;;;;;;;2.10;1.50;;;14.50;99.90;;;;;;8323057;28;20185;-64
2023/08/10 05:57:19;;;;;;;1.57;1.20;;;14.70;18.30;;;;;;8318741;28;20183;-64
2023/08/10 06:01:21;;;;;;;3.17;1.20;;;14.90;1.00;;;;;;8327283;28;20232;-67
2023/08/10 06:05:22;;;;;;;1.93;0.83;;;15.10;1.00;;;;;;8323766;28;20178;-66
2023/08/10 06:09:23;;;;;;;2.63;1.27;;;15.30;1.00;;;;;;8326602;28;20230;-66
2023/08/10 06:13:23;;;;;;;1.80;1.10;;;15.50;1.00;;;;;;8320862;28;20190;-66
2023/08/10 06:17:24;;;;;;;2.30;1.20;;;15.70;1.00;;;;;;8319472;28;20206;-66
2023/08/10 06:21:25;;;;;;;3.37;1.30;;;15.80;1.00;;;;;;8329312;28;20218;-69
2023/08/10 06:25:26;;;;;;;2.03;1.20;;;16.00;1.00;;;;;;8319210;28;20193;-68
2023/08/10 06:29:26;;;;;;;3.37;1.10;;;16.30;1.00;;;;;;8326683;28;20186;-68
2023/08/10 06:33:27;;;;;;;1.63;1.03;;;16.50;1.00;;;;;;8322823;28;20211;-68
2023/08/10 06:37:28;;;;;;;2.70;0.90;;;16.70;1.00;;;;;;8322361;28;20182;-68
2023/08/10 06:41:29;;;;;;;2.00;0.93;;;17.00;1.00;;;;;;8320122;28;20213;-68
2023/08/10 06:45:29;;;;;;;14.27;1.73;;;17.10;1.00;;;;;;8325730;28;20198;-69
2023/08/10 06:49:30;;;;;;;1.43;1.00;;;17.40;1.00;;;;;;8333259;28;20498;-69
2023/08/10 06:53:33;;;;;;;2.90;1.03;;;17.60;1.00;;;;;;8322174;28;20269;-68
2023/08/10 06:57:36;;;;;;;4.20;0.93;;;17.80;1.00;;;;;;8317359;28;20906;-68
2023/08/10 07:01:37;;;;;;;1.47;0.80;;;17.90;1.00;;;;;;8329991;28;20213;-69
2023/08/10 07:05:39;;;;;;;4.93;0.90;;;18.10;1.00;;;;;;8324900;28;20235;-67
2023/08/10 07:09:41;;;;;;;1.93;0.90;;;18.20;1.00;;;;;;8320311;28;20202;-67
2023/08/10 07:13:41;;;;;;;2.17;1.07;;;18.00;99.90;;;;;;8332789;28;20205;-66
2023/08/10 07:17:42;;;;;;;1.47;1.00;;;18.20;99.90;;;;;;8331239;28;20186;-66
2023/08/10 07:21:43;;;;;;;5.30;0.97;;;18.30;99.90;;;;;;8327862;28;20210;-66
2023/08/10 07:25:47;;;;;;;2.60;0.80;;;18.50;1.00;;;;;;8325910;28;20185;-67
2023/08/10 07:29:48;;;;;;;3.47;1.10;;;18.60;99.90;;;;;;8327208;28;20273;-64
2023/08/10 07:33:49;;;;;;;1.80;1.00;;;18.60;99.90;;;;;;8327075;28;20183;-66
2023/08/10 07:37:50;;;;;;;3.80;0.90;;;18.40;99.90;;;;;;8335181;28;20186;-69
2023/08/10 07:41:52;;;;;;;0.93;0.60;;;18.50;99.90;;;;;;8331500;28;20222;-68
2023/08/10 07:45:54;;;;;;;2.87;1.10;;;18.80;99.90;;;;;;8323050;28;20241;-67
2023/08/10 07:49:54;;;;;;;3.10;0.93;;;19.00;99.90;;;;;;8323463;28;20186;-68
2023/08/10 07:53:55;;;;;;;1.80;0.87;;;19.00;99.90;;;;;;8327358;28;20225;-70
2023/08/10 07:57:56;;;;;;;3.00;1.00;;;19.10;99.90;;;;;;8332694;28;20247;-69
2023/08/10 08:01:57;;;;;;;1.13;0.70;;;19.30;99.90;;;;;;8332898;28;20206;-69
2023/08/10 08:06:01;;;;;;;3.43;0.70;;;19.40;99.90;;;;;;8327346;28;20178;-68
2023/08/10 08:10:03;;;;;;;2.63;1.03;;;19.70;99.90;;;;;;8344039;28;20345;-67
2023/08/10 08:14:04;;;;;;;2.77;1.03;;;20.00;99.90;;;;;;8331342;28;20189;-67
2023/08/10 08:18:43;;;;;;;2.03;1.40;;;20.10;99.90;;;;;;8331963;28;20197;-66
2023/08/10 08:22:43;;;;;;;3.10;1.17;;;20.00;99.90;;;;;;8329897;28;20214;-68
2023/08/10 08:26:44;;;;;;;2.50;1.40;;;19.70;99.90;;;;;;8327877;28;20392;-69
2023/08/10 08:30:45;;;;;;;2.60;1.37;;;19.60;99.90;;;;;;8340305;28;20186;-70
2023/08/10 08:34:45;;;;;;;2.33;1.10;;;19.80;99.90;;;;;;8331557;28;20192;-67
2023/08/10 08:38:46;;;;;;;1.73;1.00;;;20.10;99.90;;;;;;8331638;28;20186;-70
2023/08/10 08:42:49;;;;;;;1.70;0.73;;;20.40;99.90;;;;;;8327630;28;20316;-66
2023/08/10 08:46:50;;;;;;;1.63;0.80;;;20.40;99.90;;;;;;8330586;28;20228;-65
2023/08/10 08:50:51;;;;;;;1.53;1.00;;;20.30;99.90;;;;;;8321975;28;20206;-67
2023/08/10 08:54:54;;;;;;;3.43;0.93;;;20.40;99.90;;;;;;8323457;28;20201;-66
2023/08/10 08:58:55;;;;;;;1.67;0.70;;;20.80;99.90;;;;;;8325335;28;20240;-68
2023/08/10 09:02:55;;;;;;;2.50;0.80;;;21.30;99.90;;;;;;8330214;28;20249;-67
2023/08/10 09:06:56;;;;;;;2.23;1.00;;;21.80;99.90;;;;;;8325666;28;20208;-68
2023/08/10 09:10:57;;;;;;;3.00;0.70;;;22.20;99.90;;;;;;8320891;28;20209;-69
2023/08/10 09:15:16;;;;;;;3.43;0.97;;;22.30;99.90;;;;;;8325712;28;20193;-68
2023/08/10 09:19:17;;;;;;;1.73;0.97;;;22.20;99.90;;;;;;8321076;28;20226;-67
2023/08/10 09:23:18;;;;;;;2.93;1.20;;;22.00;99.90;;;;;;8325432;28;20221;-68
2023/08/10 09:27:19;;;;;;;4.30;1.70;;;21.80;99.90;;;;;;8325276;28;20192;-66
2023/08/10 09:31:25;;;;;;;3.67;1.40;;;21.60;99.90;;;;;;8327124;28;20214;-66
2023/08/10 09:35:30;;;;;;;2.23;1.30;;;21.20;99.90;;;;;;8329546;28;20300;-67
2023/08/10 09:39:32;;;;;;;4.20;1.97;;;21.00;99.90;;;;;;8326851;28;20185;-66
2023/08/10 09:43:35;;;;;;;2.77;1.67;;;21.20;99.90;;;;;;8328796;28;20284;-72
2023/08/10 09:47:38;;;;;;;2.83;1.70;;;21.20;99.90;;;;;;8325026;28;20197;-68
2023/08/10 09:51:39;;;;;;;4.43;2.03;;;21.10;99.90;;;;;;8326787;28;20191;-66
2023/08/10 09:55:40;;;;;;;2.60;1.50;;;20.90;99.90;;;;;;8327420;28;20312;-65
2023/08/10 09:59:48;;;;;;;4.23;1.60;;;21.00;99.90;;;;;;8322504;28;20210;-63
2023/08/10 10:03:49;;;;;;;1.80;1.33;;;21.30;99.90;;;;;;8328062;28;20186;-67
2023/08/10 10:07:50;;;;;;;5.00;1.50;;;21.60;99.90;;;;;;8322885;28;20302;-64
2023/08/10 10:11:51;;;;;;;2.17;1.43;;;21.80;99.90;;;;;;8336393;28;20214;-64
2023/08/10 10:15:54;;;;;;;2.67;1.00;;;21.60;99.90;;;;;;8324142;28;20186;-68
2023/08/10 10:19:55;;;;;;;1.13;1.03;;;21.80;99.90;;;;;;8323424;28;20230;-70
2023/08/10 10:24:01;;;;;;;2.10;0.70;;;22.00;99.90;;;;;;8328048;28;20194;-70
2023/08/10 10:28:14;;;;;;;2.97;0.93;;;21.80;99.90;;;;;;8327278;28;20186;-67
2023/08/10 10:32:18;;;;;;;1.33;0.90;;;21.70;99.90;;;;;;8325791;28;20194;-67
2023/08/10 10:36:20;;;;;;;1.50;1.00;;;21.30;99.90;;;;;;8320519;28;20201;-66
2023/08/10 10:40:23;;;;;;;2.03;0.90;;;21.30;99.90;;;;;;8324300;28;20320;-64
2023/08/10 10:45:03;;;;;;;2.90;1.00;;;21.10;99.90;;;;;;8321429;28;20202;-66
2023/08/10 10:49:12;;;;;;;1.30;0.80;;;21.60;99.90;;;;;;8320130;28;20186;-66
2023/08/10 10:53:16;;;;;;;2.03;0.97;;;21.70;99.90;;;;;;8323545;28;20186;-66
2023/08/10 10:57:17;;;;;;;2.03;0.80;;;21.90;99.90;;;;;;8331475;28;20272;-65
2023/08/10 11:01:22;;;;;;;0.93;0.80;;;21.80;99.90;;;;;;8325855;28;20213;-65
2023/08/10 11:05:23;;;;;;;1.30;0.70;;;21.90;99.90;;;;;;8328334;28;20193;-67
2023/08/10 11:09:23;;;;;;;1.17;0.70;;;21.70;99.90;;;;;;8327792;28;20209;-65
2023/08/10 11:13:27;;;;;;;1.30;0.70;;;21.90;99.90;;;;;;8326635;28;20291;-67
2023/08/10 11:17:28;;;;;;;1.17;0.70;;;22.20;99.90;;;;;;8328231;28;20190;-69
2023/08/10 11:21:29;;;;;;;1.90;0.60;;;22.60;99.90;;;;;;8326442;28;20209;-65
2023/08/10 11:25:32;;;;;;;1.73;0.70;;;22.90;99.90;;;;;;8326957;28;20197;-65
2023/08/10 11:29:32;;;;;;;1.60;0.70;;;23.40;99.90;;;;;;8329515;28;20289;-64
2023/08/10 11:33:33;;;;;;;2.13;0.80;;;24.20;99.90;;;;;;8329174;28;20488;-69
2023/08/10 11:37:36;;;;;;;2.17;0.73;;;24.50;99.90;;;;;;8328643;28;20186;-66
2023/08/10 11:41:41;;;;;;;6.00;0.80;;;24.80;99.90;;;;;;8331297;28;20214;-67
2023/08/10 11:45:43;;;;;;;2.10;0.97;;;25.10;99.90;;;;;;8329957;28;20194;-67
2023/08/10 11:49:43;;;;;;;1.50;0.70;;;24.10;99.90;;;;;;8333356;28;20190;-66
2023/08/10 11:53:47;;;;;;;1.10;0.67;;;23.50;99.90;;;;;;8331661;28;20201;-68
2023/08/10 11:57:54;;;;;;;1.57;0.80;;;23.30;99.90;;;;;;8330499;28;20372;-66
2023/08/10 12:01:57;;;;;;;12.03;3.50;;;23.00;99.90;;;;;;8336760;28;20206;-67
2023/08/10 12:06:05;;;;;;;10.00;3.13;;;22.90;99.90;;;;;;8328253;28;20191;-66
2023/08/10 12:10:08;;;;;;;4.00;1.40;;;22.80;99.90;;;;;;8329835;28;20210;-66
2023/08/10 12:14:09;;;;;;;2.77;1.40;;;22.50;99.90;;;;;;8329559;28;20186;-67
2023/08/10 12:18:10;;;;;;;2.17;1.17;;;22.60;99.90;;;;;;8329284;28;20193;-66
2023/08/10 12:22:11;;;;;;;1.67;0.90;;;22.60;99.90;;;;;;8324050;28;20306;-67
2023/08/10 12:26:13;;;;;;;3.57;0.80;;;22.70;99.90;;;;;;8327787;28;20197;-68
2023/08/10 12:30:15;;;;;;;2.33;0.87;;;22.90;99.90;;;;;;8323996;28;20277;-67
2023/08/10 12:34:16;;;;;;;1.87;0.80;;;22.90;99.90;;;;;;8329036;28;20225;-66
2023/08/10 12:38:18;;;;;;;1.60;0.67;;;22.70;99.90;;;;;;8330965;28;20191;-65
2023/08/10 12:42:19;;;;;;;1.37;0.60;;;22.60;99.90;;;;;;8328189;28;20285;-66
2023/08/10 12:46:20;;;;;;;0.80;0.50;;;22.90;99.90;;;;;;8327499;28;20317;-67
2023/08/10 12:50:21;;;;;;;1.83;0.80;;;22.80;99.90;;;;;;8323184;28;20285;-67
2023/08/10 12:54:22;;;;;;;0.90;0.60;;;22.90;99.90;;;;;;8324111;28;20186;-67
2023/08/10 12:58:23;;;;;;;0.97;0.70;;;23.40;99.90;;;;;;8328298;28;20515;-67
2023/08/10 13:02:25;;;;;;;2.57;0.63;;;23.90;99.90;;;;;;8323396;28;20241;-65
2023/08/10 13:06:26;;;;;;;1.13;0.63;;;24.00;99.90;;;;;;8324434;28;20194;-68
2023/08/10 13:10:27;;;;;;;1.33;0.87;;;23.80;99.90;;;;;;8323167;28;20209;-66
2023/08/10 13:14:28;;;;;;;1.90;0.80;;;23.70;99.90;;;;;;8323575;28;20197;-65
2023/08/10 13:18:29;;;;;;;1.27;0.53;;;23.80;99.90;;;;;;8320566;28;20217;-70
2023/08/10 13:22:31;;;;;;;1.23;0.80;;;23.80;99.90;;;;;;8326914;28;20351;-66
2023/08/10 13:26:32;;;;;;;3.03;0.80;;;24.00;99.90;;;;;;8323334;28;20239;-68
2023/08/10 13:30:34;;;;;;;1.27;0.70;;;24.30;99.90;;;;;;8327497;28;20194;-68
2023/08/10 13:34:35;;;;;;;2.37;1.23;;;24.70;99.90;;;;;;8321903;28;20620;-67
2023/08/10 13:38:35;;;;;;;0.90;0.63;;;24.80;99.90;;;;;;8329262;28;20193;-69
2023/08/10 13:42:36;;;;;;;1.42;0.88;;;24.60;99.90;;;;;;8322550;28;20223;-67
2023/08/10 13:46:37;;;;;;;2.07;0.93;;;24.90;99.90;;;;;;8318170;28;20207;-66
2023/08/10 13:50:38;;;;;;;0.80;0.80;;;25.20;99.90;;;;;;8326925;28;20318;-69
2023/08/10 13:54:39;;;;;;;3.93;0.90;;;24.60;99.90;;;;;;8322739;28;20268;-68
2023/08/10 13:58:40;;;;;;;1.10;0.70;;;24.00;99.90;;;;;;8322899;28;20190;-65
2023/08/10 14:02:42;;;;;;;2.70;0.90;;;23.80;99.90;;;;;;8320952;28;20249;-66
2023/08/10 14:06:45;;;;;;;0.90;0.80;;;23.80;99.90;;;;;;8328966;28;20190;-65
2023/08/10 14:10:46;;;;;;;1.30;0.50;;;23.80;99.90;;;;;;8321940;28;20209;-68
2023/08/10 14:14:47;;;;;;;3.00;0.90;;;24.20;99.90;;;;;;8315320;28;20276;-67
2023/08/10 14:18:47;;;;;;;1.23;0.90;;;24.00;99.90;;;;;;8318681;28;20224;-67
2023/08/10 14:22:48;;;;;;;1.13;0.60;;;24.00;99.90;;;;;;8320730;28;20206;-68
2023/08/10 14:26:49;;;;;;;1.40;0.70;;;24.10;99.90;;;;;;8321590;28;20178;-67
2023/08/10 14:30:50;;;;;;;1.37;0.77;;;24.00;99.90;;;;;;8321530;28;20338;-67
2023/08/10 14:34:54;;;;;;;1.60;0.73;;;23.70;99.90;;;;;;8319734;28;20185;-66
2023/08/10 14:38:57;;;;;;;1.27;0.83;;;23.60;99.90;;;;;;8323895;28;20258;-69
2023/08/10 14:42:58;;;;;;;2.23;1.00;;;23.40;99.90;;;;;;8315687;28;20213;-69
2023/08/10 14:46:58;;;;;;;1.77;0.90;;;23.20;99.90;;;;;;8319960;28;20193;-68
2023/08/10 14:51:05;;;;;;;1.63;1.00;;;23.10;99.90;;;;;;8318653;28;20202;-69
2023/08/10 14:55:06;;;;;;;0.90;0.70;;;22.90;99.90;;;;;;8320905;28;20197;-68
2023/08/10 14:59:07;;;;;;;2.90;0.73;;;22.70;99.90;;;;;;8318119;28;20305;-67
2023/08/10 15:03:08;;;;;;;1.87;0.90;;;22.70;99.90;;;;;;8318554;28;20325;-69
2023/08/10 15:07:09;;;;;;;0.80;0.77;;;22.90;99.90;;;;;;8320604;28;20316;-67
2023/08/10 15:11:13;;;;;;;1.97;0.83;;;22.80;99.90;;;;;;8323609;28;20209;-64
2023/08/10 15:15:15;;;;;;;1.90;1.27;;;22.70;99.90;;;;;;8329579;28;20204;-65
2023/08/10 15:19:19;;;;;;;1.93;1.03;;;22.30;99.90;;;;;;8321345;28;20196;-65
2023/08/10 15:23:20;;;;;;;1.00;0.80;;;22.20;99.90;;;;;;8326923;28;20237;-66
2023/08/10 15:27:21;;;;;;;3.13;1.20;;;22.10;99.90;;;;;;8323800;28;20520;-65
2023/08/10 15:31:27;;;;;;;3.73;1.10;;;22.10;99.90;;;;;;8323370;28;20182;-64
2023/08/10 15:35:31;;;;;;;1.67;1.20;;;22.10;99.90;;;;;;8316994;28;20191;-65
2023/08/10 15:39:41;;;;;;;1.40;0.63;;;22.20;99.90;;;;;;8321413;28;20210;-65
2023/08/10 15:43:43;;;;;;;1.43;1.00;;;22.50;99.90;;;;;;8337269;28;20292;-67
2023/08/10 15:47:43;;;;;;;1.27;0.87;;;22.80;99.90;;;;;;8320965;28;20193;-66
2023/08/10 15:51:47;;;;;;;0.90;0.60;;;23.00;99.90;;;;;;8335822;28;20457;-65
2023/08/10 15:55:51;;;;;;;1.17;0.73;;;23.10;99.90;;;;;;8328156;28;20182;-64
2023/08/10 15:59:52;;;;;;;0.87;0.70;;;23.10;99.90;;;;;;8326623;28;20186;-64
2023/08/10 16:03:53;;;;;;;1.17;0.87;;;23.00;99.90;;;;;;8331889;28;20231;-65
2023/08/10 16:07:54;;;;;;;1.50;0.87;;;22.90;99.90;;;;;;8326628;28;20186;-67
2023/08/10 16:11:55;;;;;;;3.97;1.10;;;22.80;99.90;;;;;;8333029;28;20649;-66
2023/08/10 16:15:56;;;;;;;0.83;0.77;;;22.80;99.90;;;;;;8347046;28;20217;-66
2023/08/10 16:20:04;;;;;;;1.47;0.90;;;22.70;99.90;;;;;;8324627;28;20182;-68
2023/08/10 16:24:07;;;;;;;2.43;1.00;;;22.80;99.90;;;;;;8322345;28;20178;-68
2023/08/10 16:28:08;;;;;;;2.37;1.00;;;22.90;99.90;;;;;;8322021;28;20182;-67
2023/08/10 16:32:08;;;;;;;2.10;0.90;;;22.80;99.90;;;;;;8322747;28;20183;-69
2023/08/10 16:36:09;;;;;;;2.10;1.00;;;22.80;99.90;;;;;;8322680;28;20194;-67
2023/08/10 16:40:10;;;;;;;2.90;1.03;;;22.70;99.90;;;;;;8328950;28;20300;-68
2023/08/10 16:44:11;;;;;;;1.87;1.00;;;22.50;99.90;;;;;;8329470;28;20202;-67
2023/08/10 16:48:12;;;;;;;1.07;0.73;;;22.40;99.90;;;;;;8330515;28;20186;-67
2023/08/10 16:52:13;;;;;;;1.50;1.10;;;22.40;99.90;;;;;;8326788;28;20189;-66
2023/08/10 16:56:14;;;;;;;0.83;0.80;;;22.30;99.90;;;;;;8323230;28;20182;-67
2023/08/10 17:00:16;;;;;;;0.80;0.80;;;22.20;99.90;;;;;;8324576;28;20190;-68
2023/08/10 17:04:16;;;;;;;1.63;0.93;;;22.20;99.90;;;;;;8328688;28;20190;-68
2023/08/10 17:08:19;;;;;;;1.73;0.80;;;22.20;99.90;;;;;;8324795;28;20313;-68
2023/08/10 17:12:24;;;;;;;1.23;0.90;;;22.30;99.90;;;;;;8326167;28;20392;-68
2023/08/10 17:16:28;;;;;;;3.30;1.10;;;22.30;99.90;;;;;;8324837;28;20196;-68
2023/08/10 17:20:32;;;;;;;1.67;1.20;;;22.10;99.90;;;;;;8326042;28;20288;-68
2023/08/10 17:24:34;;;;;;;1.73;1.00;;;21.80;99.90;;;;;;8327465;28;20197;-68
2023/08/10 17:28:35;;;;;;;1.83;1.27;;;21.70;99.90;;;;;;8320803;28;20522;-67
2023/08/10 17:32:36;;;;;;;1.90;1.20;;;21.50;99.90;;;;;;8321953;28;20224;-67
2023/08/10 17:36:37;;;;;;;1.70;1.10;;;21.30;99.90;;;;;;8324911;28;20518;-67
2023/08/10 17:40:38;;;;;;;3.27;1.00;;;21.40;99.90;;;;;;8320225;28;20215;-68
2023/08/10 17:44:39;;;;;;;2.23;1.40;;;22.00;99.90;;;;;;8325371;28;20268;-68
2023/08/10 17:48:43;;;;;;;3.70;1.63;;;22.70;99.90;;;;;;8325183;28;20276;-69
2023/08/10 17:52:47;;;;;;;3.70;1.23;;;23.30;99.90;;;;;;8322846;28;20198;-68
2023/08/10 17:56:47;;;;;;;3.17;1.30;;;23.60;99.90;;;;;;8322957;28;20629;-68
2023/08/10 18:00:48;;;;;;;2.40;1.70;;;23.50;99.90;;;;;;8326688;28;20206;-68
2023/08/10 18:04:54;;;;;;;20.10;10.93;;;23.00;99.90;;;;;;8318036;28;20187;-68
2023/08/10 18:08:58;;;;;;;38.97;20.23;;;22.30;99.90;;;;;;8314877;28;20210;-68
2023/08/10 18:12:59;;;;;;;22.10;10.80;;;21.50;99.90;;;;;;8322003;28;20197;-67
2023/08/10 18:17:02;;;;;;;10.00;5.17;;;20.90;99.90;;;;;;8315915;28;20228;-68
2023/08/10 18:21:05;;;;;;;6.27;3.43;;;20.30;99.90;;;;;;8323252;28;20213;-67
2023/08/10 18:25:06;;;;;;;2.90;2.00;;;19.70;99.90;;;;;;8325646;28;20197;-68
2023/08/10 18:29:09;;;;;;;2.47;1.77;;;19.10;99.90;;;;;;8321283;28;20210;-66
2023/08/10 18:33:10;;;;;;;2.23;1.30;;;18.70;99.90;;;;;;8321085;28;20186;-65
2023/08/10 18:37:11;;;;;;;1.60;1.20;;;18.20;99.90;;;;;;8319190;28;20200;-66
2023/08/10 18:41:17;;;;;;;2.17;1.00;;;17.90;1.00;;;;;;8323481;28;20206;-64
2023/08/10 18:45:18;;;;;;;8.63;1.83;;;17.70;1.00;;;;;;8317721;28;20227;-63
2023/08/10 18:49:19;;;;;;;3.43;1.40;;;17.40;1.00;;;;;;8320999;28;20190;-66
2023/08/10 18:53:20;;;;;;;1.30;1.10;;;17.00;1.00;;;;;;8317904;28;20246;-65
2023/08/10 18:57:21;;;;;;;1.93;1.30;;;16.80;1.00;;;;;;8322943;28;20273;-65
2023/08/10 19:01:23;;;;;;;1.60;1.40;;;16.50;1.00;;;;;;8321258;28;20210;-66
2023/08/10 19:05:29;;;;;;;1.90;1.30;;;16.30;1.00;;;;;;8320720;28;20192;-66
2023/08/10 19:09:29;;;;;;;1.83;1.30;;;16.20;1.00;;;;;;8319405;28;20247;-66
2023/08/10 19:13:30;;;;;;;2.50;1.57;;;16.10;1.00;;;;;;8323245;28;20328;-65
2023/08/10 19:17:31;;;;;;;1.87;1.30;;;16.00;1.00;;;;;;8325775;28;20186;-62
2023/08/10 19:21:32;;;;;;;1.77;1.50;;;15.80;1.00;;;;;;8328472;28;20224;-62
2023/08/10 19:25:35;;;;;;;2.90;2.03;;;15.70;1.00;;;;;;8315941;28;20233;-63
2023/08/10 19:29:37;;;;;;;3.17;1.40;;;15.60;1.00;;;;;;8323126;28;20183;-63
2023/08/10 19:33:38;;;;;;;2.80;1.63;;;15.40;1.00;;;;;;8324304;28;20203;-64
2023/08/10 19:37:39;;;;;;;1.97;1.77;;;15.30;1.00;;;;;;8329859;28;20206;-64
2023/08/10 19:41:40;;;;;;;1.60;1.37;;;15.20;1.00;;;;;;8326537;28;20214;-63
2023/08/10 19:45:41;;;;;;;3.20;1.50;;;15.00;1.00;;;;;;8329198;28;20307;-61
2023/08/10 19:49:41;;;;;;;2.27;1.90;;;14.90;1.00;;;;;;8326480;28;20187;-65
2023/08/10 19:53:42;;;;;;;3.90;1.57;;;14.90;1.00;;;;;;8326805;28;20279;-64
2023/08/10 19:57:43;;;;;;;2.43;2.10;;;14.70;1.00;;;;;;8326922;28;20187;-63
2023/08/10 20:01:44;;;;;;;2.47;1.80;;;14.60;1.00;;;;;;8331755;28;20214;-63
2023/08/10 20:05:45;;;;;;;2.10;1.87;;;14.40;1.00;;;;;;8327504;28;20187;-63
2023/08/10 20:09:46;;;;;;;3.10;2.13;;;14.20;18.80;;;;;;8331398;28;20210;-64
2023/08/10 20:13:46;;;;;;;3.70;2.20;;;14.10;65.40;;;;;;8327506;28;20187;-61
2023/08/10 20:17:47;;;;;;;1.97;1.83;;;14.00;95.30;;;;;;8327435;28;20559;-65
2023/08/10 20:21:48;;;;;;;1.90;1.67;;;13.90;99.90;;;;;;8330435;28;20213;-63
2023/08/10 20:25:50;;;;;;;2.43;2.10;;;13.70;99.90;;;;;;8336256;28;20704;-67
2023/08/10 20:29:51;;;;;;;3.47;2.27;;;13.70;99.90;;;;;;8327084;28;20182;-66
2023/08/10 20:33:53;;;;;;;3.63;2.07;;;13.50;99.90;;;;;;8328673;28;20198;-66
2023/08/10 20:37:53;;;;;;;2.83;2.10;;;13.40;99.90;;;;;;8326448;28;20197;-66
2023/08/10 20:41:54;;;;;;;2.03;1.83;;;13.20;99.90;;;;;;8323659;28;20213;-66
2023/08/10 20:45:55;;;;;;;2.33;2.07;;;13.10;99.90;;;;;;8325966;28;20207;-66
2023/08/10 20:49:56;;;;;;;2.10;1.90;;;13.10;99.90;;;;;;8323488;28;20413;-65
2023/08/10 20:53:57;;;;;;;2.27;2.00;;;13.00;99.90;;;;;;8328381;28;21737;-66
2023/08/10 20:57:57;;;;;;;2.60;2.00;;;13.00;99.90;;;;;;8327244;28;20285;-66
2023/08/10 21:01:58;;;;;;;2.40;2.20;;;12.90;99.90;;;;;;8326625;28;20629;-67